sensor_id;sensor_type;location;lat;lon;timestamp;temperature;humidity
9383;DHT22;4731;49.708;10.816;2022-07-26T00:01:38;22.00;99.90
9383;DHT22;4731;49.708;10.816;2022-07-26T00:06:33;22.00;99.90
9383;DHT22;4731;49.708;10.816;2022-07-26T00:09:00;22.00;99.90
9383;DHT22;4731;49.708;10.816;2022-07-26T00:11:27;21.90;99.90
9383;DHT22;4731;49.708;10.816;2022-07-26T00:13:58;22.00;99.90
9383;DHT22;4731;49.708;10.816;2022-07-26T00:16:24;21.90;99.90
9383;DHT22;4731;49.708;10.816;2022-07-26T00:18:51;22.00;99.90
9383;DHT22;4731;49.708;10.816;2022-07-26T00:21:19;21.90;99.90
9383;DHT22;4731;49.708;10.816;2022-07-26T00:23:46;22.00;99.90
9383;DHT22;4731;49.708;10.816;2022-07-26T00:26:13;21.90;99.90
9383;DHT22;4731;49.708;10.816;2022-07-26T00:28:40;22.00;99.90
9383;DHT22;4731;49.708;10.816;2022-07-26T00:31:07;22.00;99.90
9383;DHT22;4731;49.708;10.816;2022-07-26T00:33:36;22.00;99.90
9383;DHT22;4731;49.708;10.816;2022-07-26T00:36:03;21.90;99.90
9383;DHT22;4731;49.708;10.816;2022-07-26T00:38:31;21.90;99.90
9383;DHT22;4731;49.708;10.816;2022-07-26T00:40:58;21.90;99.90
9383;DHT22;4731;49.708;10.816;2022-07-26T00:43:25;22.00;99.90
9383;DHT22;4731;49.708;10.816;2022-07-26T00:45:52;21.90;99.90
9383;DHT22;4731;49.708;10.816;2022-07-26T00:48:19;21.90;99.90
9383;DHT22;4731;49.708;10.816;2022-07-26T00:50:46;21.90;99.90
9383;DHT22;4731;49.708;10.816;2022-07-26T00:53:12;21.80;99.90
9383;DHT22;4731;49.708;10.816;2022-07-26T00:55:41;21.80;99.90
9383;DHT22;4731;49.708;10.816;2022-07-26T00:58:07;21.80;99.90
9383;DHT22;4731;49.708;10.816;2022-07-26T01:00:34;21.80;99.90
9383;DHT22;4731;49.708;10.816;2022-07-26T01:03:01;21.80;99.90
9383;DHT22;4731;49.708;10.816;2022-07-26T01:05:28;21.80;99.90
9383;DHT22;4731;49.708;10.816;2022-07-26T01:07:55;21.80;99.90
9383;DHT22;4731;49.708;10.816;2022-07-26T01:10:22;21.70;99.90
9383;DHT22;4731;49.708;10.816;2022-07-26T01:12:50;21.70;99.90
9383;DHT22;4731;49.708;10.816;2022-07-26T01:15:17;21.70;99.90
9383;DHT22;4731;49.708;10.816;2022-07-26T01:17:44;21.70;99.90
9383;DHT22;4731;49.708;10.816;2022-07-26T01:20:12;21.60;99.90
9383;DHT22;4731;49.708;10.816;2022-07-26T01:25:08;21.50;99.90
9383;DHT22;4731;49.708;10.816;2022-07-26T01:27:35;21.50;99.90
9383;DHT22;4731;49.708;10.816;2022-07-26T01:30:06;21.50;99.90
9383;DHT22;4731;49.708;10.816;2022-07-26T01:32:33;21.50;99.90
9383;DHT22;4731;49.708;10.816;2022-07-26T01:37:27;21.40;99.90
9383;DHT22;4731;49.708;10.816;2022-07-26T01:39:55;21.40;99.90
9383;DHT22;4731;49.708;10.816;2022-07-26T01:42:22;21.40;99.90
9383;DHT22;4731;49.708;10.816;2022-07-26T01:44:49;21.40;99.90
9383;DHT22;4731;49.708;10.816;2022-07-26T01:47:16;21.40;99.90
9383;DHT22;4731;49.708;10.816;2022-07-26T01:49:43;21.40;99.90
9383;DHT22;4731;49.708;10.816;2022-07-26T01:52:09;21.40;99.90
9383;DHT22;4731;49.708;10.816;2022-07-26T01:54:36;21.40;99.90
9383;DHT22;4731;49.708;10.816;2022-07-26T01:59:31;21.40;99.90
9383;DHT22;4731;49.708;10.816;2022-07-26T02:01:58;21.30;99.90
9383;DHT22;4731;49.708;10.816;2022-07-26T02:04:25;21.30;99.90
9383;DHT22;4731;49.708;10.816;2022-07-26T02:07:09;21.30;99.90
9383;DHT22;4731;49.708;10.816;2022-07-26T02:09:36;21.20;99.90
9383;DHT22;4731;49.708;10.816;2022-07-26T02:12:05;21.30;99.90
9383;DHT22;4731;49.708;10.816;2022-07-26T02:14:32;21.30;99.90
9383;DHT22;4731;49.708;10.816;2022-07-26T02:19:26;21.20;99.90
9383;DHT22;4731;49.708;10.816;2022-07-26T02:21:53;21.20;99.90
9383;DHT22;4731;49.708;10.816;2022-07-26T02:24:20;21.20;99.90
9383;DHT22;4731;49.708;10.816;2022-07-26T02:26:46;22.40;99.90
9383;DHT22;4731;49.708;10.816;2022-07-26T02:29:14;21.30;99.90
9383;DHT22;4731;49.708;10.816;2022-07-26T02:31:41;21.30;99.90
9383;DHT22;4731;49.708;10.816;2022-07-26T02:34:08;21.20;99.90
9383;DHT22;4731;49.708;10.816;2022-07-26T02:36:35;21.20;99.90
9383;DHT22;4731;49.708;10.816;2022-07-26T02:39:02;21.10;99.90
9383;DHT22;4731;49.708;10.816;2022-07-26T02:41:29;21.10;99.90
9383;DHT22;4731;49.708;10.816;2022-07-26T02:43:56;20.90;99.90
9383;DHT22;4731;49.708;10.816;2022-07-26T02:48:51;20.90;99.90
9383;DHT22;4731;49.708;10.816;2022-07-26T02:51:18;20.90;99.90
9383;DHT22;4731;49.708;10.816;2022-07-26T02:53:44;20.90;99.90
9383;DHT22;4731;49.708;10.816;2022-07-26T02:56:11;20.90;99.90
9383;DHT22;4731;49.708;10.816;2022-07-26T02:58:38;20.90;99.90
9383;DHT22;4731;49.708;10.816;2022-07-26T03:01:05;21.00;99.90
9383;DHT22;4731;49.708;10.816;2022-07-26T03:03:33;21.00;99.90
9383;DHT22;4731;49.708;10.816;2022-07-26T03:06:00;24.00;99.90
9383;DHT22;4731;49.708;10.816;2022-07-26T03:08:27;24.10;99.90
9383;DHT22;4731;49.708;10.816;2022-07-26T03:10:53;21.00;99.90
9383;DHT22;4731;49.708;10.816;2022-07-26T03:13:20;20.90;99.90
9383;DHT22;4731;49.708;10.816;2022-07-26T03:23:09;20.80;99.90
9383;DHT22;4731;49.708;10.816;2022-07-26T03:25:36;20.80;99.90
9383;DHT22;4731;49.708;10.816;2022-07-26T03:28:03;20.70;99.90
9383;DHT22;4731;49.708;10.816;2022-07-26T03:30:30;20.70;99.90
9383;DHT22;4731;49.708;10.816;2022-07-26T03:32:57;20.60;99.90
9383;DHT22;4731;49.708;10.816;2022-07-26T03:35:24;20.60;99.90
9383;DHT22;4731;49.708;10.816;2022-07-26T03:37:53;20.50;99.90
9383;DHT22;4731;49.708;10.816;2022-07-26T03:42:47;20.40;99.90
9383;DHT22;4731;49.708;10.816;2022-07-26T03:45:15;20.40;99.90
9383;DHT22;4731;49.708;10.816;2022-07-26T03:47:42;20.40;99.90
9383;DHT22;4731;49.708;10.816;2022-07-26T03:50:10;20.30;99.90
9383;DHT22;4731;49.708;10.816;2022-07-26T03:52:38;20.30;99.90
9383;DHT22;4731;49.708;10.816;2022-07-26T03:55:07;20.30;99.90
9383;DHT22;4731;49.708;10.816;2022-07-26T03:57:48;20.20;99.90
9383;DHT22;4731;49.708;10.816;2022-07-26T04:00:14;20.30;99.90
9383;DHT22;4731;49.708;10.816;2022-07-26T04:02:41;20.20;99.90
9383;DHT22;4731;49.708;10.816;2022-07-26T04:05:08;20.20;99.90
9383;DHT22;4731;49.708;10.816;2022-07-26T04:07:40;20.30;99.90
9383;DHT22;4731;49.708;10.816;2022-07-26T04:10:09;20.40;99.90
9383;DHT22;4731;49.708;10.816;2022-07-26T04:12:36;20.40;99.90
9383;DHT22;4731;49.708;10.816;2022-07-26T04:15:04;20.40;99.90
9383;DHT22;4731;49.708;10.816;2022-07-26T04:17:35;20.60;99.90
9383;DHT22;4731;49.708;10.816;2022-07-26T04:20:03;20.70;99.90
9383;DHT22;4731;49.708;10.816;2022-07-26T04:22:30;20.70;99.90
9383;DHT22;4731;49.708;10.816;2022-07-26T04:24:57;20.70;99.90
9383;DHT22;4731;49.708;10.816;2022-07-26T04:27:25;20.70;99.90
9383;DHT22;4731;49.708;10.816;2022-07-26T04:29:52;20.70;99.90
9383;DHT22;4731;49.708;10.816;2022-07-26T04:32:18;20.60;99.90
9383;DHT22;4731;49.708;10.816;2022-07-26T04:34:45;20.60;99.90
9383;DHT22;4731;49.708;10.816;2022-07-26T04:37:12;20.50;99.90
9383;DHT22;4731;49.708;10.816;2022-07-26T04:39:38;20.50;99.90
9383;DHT22;4731;49.708;10.816;2022-07-26T04:42:05;20.50;99.90
9383;DHT22;4731;49.708;10.816;2022-07-26T04:44:33;20.60;99.90
9383;DHT22;4731;49.708;10.816;2022-07-26T04:47:00;20.60;99.90
9383;DHT22;4731;49.708;10.816;2022-07-26T04:49:27;20.70;99.90
9383;DHT22;4731;49.708;10.816;2022-07-26T04:51:54;20.70;99.90
9383;DHT22;4731;49.708;10.816;2022-07-26T04:54:20;20.70;99.90
9383;DHT22;4731;49.708;10.816;2022-07-26T04:56:47;20.70;99.90
9383;DHT22;4731;49.708;10.816;2022-07-26T04:59:14;20.70;99.90
9383;DHT22;4731;49.708;10.816;2022-07-26T05:01:43;20.60;99.90
9383;DHT22;4731;49.708;10.816;2022-07-26T05:04:10;20.60;99.90
9383;DHT22;4731;49.708;10.816;2022-07-26T05:06:36;20.50;99.90
9383;DHT22;4731;49.708;10.816;2022-07-26T05:09:03;20.50;99.90
9383;DHT22;4731;49.708;10.816;2022-07-26T05:11:30;20.60;99.90
9383;DHT22;4731;49.708;10.816;2022-07-26T05:13:57;23.60;99.90
9383;DHT22;4731;49.708;10.816;2022-07-26T05:16:24;20.50;99.90
9383;DHT22;4731;49.708;10.816;2022-07-26T05:18:52;20.50;99.90
9383;DHT22;4731;49.708;10.816;2022-07-26T05:21:18;20.60;99.90
9383;DHT22;4731;49.708;10.816;2022-07-26T05:26:12;20.80;99.90
9383;DHT22;4731;49.708;10.816;2022-07-26T05:28:39;20.90;99.90
9383;DHT22;4731;49.708;10.816;2022-07-26T05:31:06;21.10;99.90
9383;DHT22;4731;49.708;10.816;2022-07-26T05:33:33;20.90;99.90
9383;DHT22;4731;49.708;10.816;2022-07-26T05:36:02;20.90;99.90
9383;DHT22;4731;49.708;10.816;2022-07-26T05:38:29;20.90;99.90
9383;DHT22;4731;49.708;10.816;2022-07-26T05:40:56;20.90;99.90
9383;DHT22;4731;49.708;10.816;2022-07-26T05:43:22;21.00;99.90
9383;DHT22;4731;49.708;10.816;2022-07-26T05:45:50;21.00;99.90
9383;DHT22;4731;49.708;10.816;2022-07-26T05:48:17;21.10;99.90
9383;DHT22;4731;49.708;10.816;2022-07-26T05:50:43;21.10;99.90
9383;DHT22;4731;49.708;10.816;2022-07-26T05:53:12;21.10;99.90
9383;DHT22;4731;49.708;10.816;2022-07-26T05:55:38;21.00;99.90
9383;DHT22;4731;49.708;10.816;2022-07-26T05:58:05;21.00;99.90
9383;DHT22;4731;49.708;10.816;2022-07-26T06:00:32;21.00;99.90
9383;DHT22;4731;49.708;10.816;2022-07-26T06:02:59;21.10;99.90
9383;DHT22;4731;49.708;10.816;2022-07-26T06:05:46;21.10;99.90
9383;DHT22;4731;49.708;10.816;2022-07-26T06:08:14;21.30;99.90
9383;DHT22;4731;49.708;10.816;2022-07-26T06:10:41;21.30;99.90
9383;DHT22;4731;49.708;10.816;2022-07-26T06:13:09;21.30;99.90
9383;DHT22;4731;49.708;10.816;2022-07-26T06:15:37;21.50;99.90
9383;DHT22;4731;49.708;10.816;2022-07-26T06:18:04;22.10;99.90
9383;DHT22;4731;49.708;10.816;2022-07-26T06:20:31;22.10;99.90
9383;DHT22;4731;49.708;10.816;2022-07-26T06:22:58;22.30;99.90
9383;DHT22;4731;49.708;10.816;2022-07-26T06:30:21;22.70;99.90
9383;DHT22;4731;49.708;10.816;2022-07-26T06:32:47;22.80;99.90
9383;DHT22;4731;49.708;10.816;2022-07-26T06:35:14;23.10;99.90
9383;DHT22;4731;49.708;10.816;2022-07-26T06:37:42;23.00;99.90
9383;DHT22;4731;49.708;10.816;2022-07-26T06:45:06;23.40;99.90
9383;DHT22;4731;49.708;10.816;2022-07-26T06:52:27;24.20;99.90
9383;DHT22;4731;49.708;10.816;2022-07-26T06:54:54;24.40;99.90
9383;DHT22;4731;49.708;10.816;2022-07-26T06:59:49;24.70;99.90
9383;DHT22;4731;49.708;10.816;2022-07-26T07:07:10;25.80;99.90
9383;DHT22;4731;49.708;10.816;2022-07-26T07:12:05;26.00;99.90
9383;DHT22;4731;49.708;10.816;2022-07-26T07:14:32;25.40;99.90
9383;DHT22;4731;49.708;10.816;2022-07-26T07:17:00;25.40;99.90
9383;DHT22;4731;49.708;10.816;2022-07-26T07:19:27;26.70;99.90
9383;DHT22;4731;49.708;10.816;2022-07-26T07:21:54;25.00;99.90
9383;DHT22;4731;49.708;10.816;2022-07-26T07:24:21;25.20;99.90
9383;DHT22;4731;49.708;10.816;2022-07-26T07:26:48;25.20;99.90
9383;DHT22;4731;49.708;10.816;2022-07-26T07:29:14;25.30;99.90
9383;DHT22;4731;49.708;10.816;2022-07-26T07:31:44;25.60;99.90
9383;DHT22;4731;49.708;10.816;2022-07-26T07:34:13;25.60;99.90
9383;DHT22;4731;49.708;10.816;2022-07-26T07:36:40;26.10;99.90
9383;DHT22;4731;49.708;10.816;2022-07-26T07:44:03;26.70;99.90
9383;DHT22;4731;49.708;10.816;2022-07-26T07:46:30;27.00;99.90
9383;DHT22;4731;49.708;10.816;2022-07-26T07:51:26;26.90;99.90
9383;DHT22;4731;49.708;10.816;2022-07-26T07:53:53;27.10;99.90
9383;DHT22;4731;49.708;10.816;2022-07-26T07:56:20;27.20;99.90
9383;DHT22;4731;49.708;10.816;2022-07-26T07:58:47;27.60;99.90
9383;DHT22;4731;49.708;10.816;2022-07-26T08:06:09;27.00;99.90
9383;DHT22;4731;49.708;10.816;2022-07-26T08:11:06;27.50;99.90
9383;DHT22;4731;49.708;10.816;2022-07-26T08:13:33;27.50;99.90
9383;DHT22;4731;49.708;10.816;2022-07-26T08:16:00;28.00;99.90
9383;DHT22;4731;49.708;10.816;2022-07-26T08:18:28;27.90;99.90
9383;DHT22;4731;49.708;10.816;2022-07-26T08:20:55;28.10;99.90
9383;DHT22;4731;49.708;10.816;2022-07-26T08:23:22;28.00;99.90
9383;DHT22;4731;49.708;10.816;2022-07-26T08:38:06;27.80;99.90
9383;DHT22;4731;49.708;10.816;2022-07-26T08:45:29;28.30;99.90
9383;DHT22;4731;49.708;10.816;2022-07-26T08:47:57;28.20;99.90
9383;DHT22;4731;49.708;10.816;2022-07-26T08:50:25;27.80;99.90
9383;DHT22;4731;49.708;10.816;2022-07-26T08:52:53;26.70;99.90
9383;DHT22;4731;49.708;10.816;2022-07-26T09:10:09;28.40;99.90
9383;DHT22;4731;49.708;10.816;2022-07-26T09:12:37;28.40;99.90
9383;DHT22;4731;49.708;10.816;2022-07-26T09:15:05;28.70;99.90
9383;DHT22;4731;49.708;10.816;2022-07-26T09:17:42;28.60;99.90
9383;DHT22;4731;49.708;10.816;2022-07-26T09:20:11;28.30;99.90
9383;DHT22;4731;49.708;10.816;2022-07-26T09:22:54;28.30;99.90
9383;DHT22;4731;49.708;10.816;2022-07-26T09:25:22;28.40;99.90
9383;DHT22;4731;49.708;10.816;2022-07-26T09:27:51;28.40;99.90
9383;DHT22;4731;49.708;10.816;2022-07-26T09:30:18;28.40;99.90
9383;DHT22;4731;49.708;10.816;2022-07-26T09:33:00;27.30;99.90
9383;DHT22;4731;49.708;10.816;2022-07-26T09:35:28;27.40;99.90
9383;DHT22;4731;49.708;10.816;2022-07-26T09:37:55;28.00;99.90
9383;DHT22;4731;49.708;10.816;2022-07-26T09:40:22;28.00;99.90
9383;DHT22;4731;49.708;10.816;2022-07-26T09:42:57;27.70;99.90
9383;DHT22;4731;49.708;10.816;2022-07-26T09:45:25;28.00;99.90
9383;DHT22;4731;49.708;10.816;2022-07-26T09:47:52;28.70;99.90
9383;DHT22;4731;49.708;10.816;2022-07-26T09:50:22;29.40;99.90
9383;DHT22;4731;49.708;10.816;2022-07-26T09:53:00;29.20;99.90
9383;DHT22;4731;49.708;10.816;2022-07-26T09:55:28;28.30;99.90
9383;DHT22;4731;49.708;10.816;2022-07-26T09:57:55;27.90;99.90
9383;DHT22;4731;49.708;10.816;2022-07-26T10:00:24;28.00;99.90
9383;DHT22;4731;49.708;10.816;2022-07-26T10:02:51;28.20;99.90
9383;DHT22;4731;49.708;10.816;2022-07-26T10:05:19;28.10;99.90
9383;DHT22;4731;49.708;10.816;2022-07-26T10:10:20;28.70;99.90
9383;DHT22;4731;49.708;10.816;2022-07-26T10:12:49;29.10;99.90
9383;DHT22;4731;49.708;10.816;2022-07-26T10:15:36;29.30;99.90
9383;DHT22;4731;49.708;10.816;2022-07-26T10:18:05;29.10;99.90
9383;DHT22;4731;49.708;10.816;2022-07-26T10:20:44;28.50;99.90
9383;DHT22;4731;49.708;10.816;2022-07-26T10:23:34;27.80;99.90
9383;DHT22;4731;49.708;10.816;2022-07-26T10:26:02;27.70;99.90
9383;DHT22;4731;49.708;10.816;2022-07-26T10:28:32;27.80;99.90
9383;DHT22;4731;49.708;10.816;2022-07-26T10:31:25;28.80;99.90
9383;DHT22;4731;49.708;10.816;2022-07-26T10:33:55;29.00;99.90
9383;DHT22;4731;49.708;10.816;2022-07-26T10:36:24;30.00;99.90
9383;DHT22;4731;49.708;10.816;2022-07-26T10:39:11;29.10;99.90
9383;DHT22;4731;49.708;10.816;2022-07-26T10:41:41;28.30;99.90
9383;DHT22;4731;49.708;10.816;2022-07-26T10:44:26;28.30;99.90
9383;DHT22;4731;49.708;10.816;2022-07-26T10:47:12;28.80;99.90
9383;DHT22;4731;49.708;10.816;2022-07-26T10:49:51;29.60;99.90
9383;DHT22;4731;49.708;10.816;2022-07-26T10:52:20;29.70;99.90
9383;DHT22;4731;49.708;10.816;2022-07-26T10:55:07;29.70;99.90
9383;DHT22;4731;49.708;10.816;2022-07-26T10:57:36;29.80;99.90
9383;DHT22;4731;49.708;10.816;2022-07-26T11:00:11;29.60;99.90
9383;DHT22;4731;49.708;10.816;2022-07-26T11:02:38;28.70;99.90
9383;DHT22;4731;49.708;10.816;2022-07-26T11:05:09;27.70;99.90
9383;DHT22;4731;49.708;10.816;2022-07-26T11:07:52;27.10;99.90
9383;DHT22;4731;49.708;10.816;2022-07-26T11:10:25;27.50;99.90
9383;DHT22;4731;49.708;10.816;2022-07-26T11:13:14;28.50;99.90
9383;DHT22;4731;49.708;10.816;2022-07-26T11:15:45;29.60;99.90
9383;DHT22;4731;49.708;10.816;2022-07-26T11:18:21;30.00;99.90
9383;DHT22;4731;49.708;10.816;2022-07-26T11:20:55;29.20;99.90
9383;DHT22;4731;49.708;10.816;2022-07-26T11:23:28;29.70;99.90
9383;DHT22;4731;49.708;10.816;2022-07-26T11:26:02;29.80;99.90
9383;DHT22;4731;49.708;10.816;2022-07-26T11:28:48;30.00;99.90
9383;DHT22;4731;49.708;10.816;2022-07-26T11:31:18;29.70;99.90
9383;DHT22;4731;49.708;10.816;2022-07-26T11:33:49;29.30;99.90
9383;DHT22;4731;49.708;10.816;2022-07-26T11:36:17;27.60;99.90
9383;DHT22;4731;49.708;10.816;2022-07-26T11:38:49;27.40;99.90
9383;DHT22;4731;49.708;10.816;2022-07-26T11:41:23;27.60;99.90
9383;DHT22;4731;49.708;10.816;2022-07-26T11:43:53;27.60;99.90
9383;DHT22;4731;49.708;10.816;2022-07-26T11:46:20;28.20;99.90
9383;DHT22;4731;49.708;10.816;2022-07-26T11:48:49;29.00;99.90
9383;DHT22;4731;49.708;10.816;2022-07-26T11:51:18;29.50;99.90
9383;DHT22;4731;49.708;10.816;2022-07-26T11:53:46;30.10;99.90
9383;DHT22;4731;49.708;10.816;2022-07-26T11:56:14;30.10;99.90
9383;DHT22;4731;49.708;10.816;2022-07-26T11:58:44;29.30;99.90
9383;DHT22;4731;49.708;10.816;2022-07-26T12:01:13;28.30;99.90
9383;DHT22;4731;49.708;10.816;2022-07-26T12:03:42;28.00;99.90
9383;DHT22;4731;49.708;10.816;2022-07-26T12:06:10;27.90;99.90
9383;DHT22;4731;49.708;10.816;2022-07-26T12:08:39;28.50;99.90
9383;DHT22;4731;49.708;10.816;2022-07-26T12:11:06;28.30;99.90
9383;DHT22;4731;49.708;10.816;2022-07-26T12:13:49;27.60;99.90
9383;DHT22;4731;49.708;10.816;2022-07-26T12:16:36;27.50;99.90
9383;DHT22;4731;49.708;10.816;2022-07-26T12:19:03;27.30;99.90
9383;DHT22;4731;49.708;10.816;2022-07-26T12:21:38;26.80;99.90
9383;DHT22;4731;49.708;10.816;2022-07-26T12:24:05;27.30;99.90
9383;DHT22;4731;49.708;10.816;2022-07-26T12:29:02;28.60;99.90
9383;DHT22;4731;49.708;10.816;2022-07-26T12:31:43;28.70;99.90
9383;DHT22;4731;49.708;10.816;2022-07-26T12:34:11;28.80;99.90
9383;DHT22;4731;49.708;10.816;2022-07-26T12:36:38;29.10;99.90
9383;DHT22;4731;49.708;10.816;2022-07-26T12:39:05;29.30;99.90
9383;DHT22;4731;49.708;10.816;2022-07-26T12:41:34;29.30;99.90
9383;DHT22;4731;49.708;10.816;2022-07-26T12:46:31;29.20;98.50
9383;DHT22;4731;49.708;10.816;2022-07-26T12:48:59;29.00;98.10
9383;DHT22;4731;49.708;10.816;2022-07-26T12:56:20;30.00;96.00
9383;DHT22;4731;49.708;10.816;2022-07-26T12:58:47;30.20;94.10
9383;DHT22;4731;49.708;10.816;2022-07-26T13:08:37;30.60;94.80
9383;DHT22;4731;49.708;10.816;2022-07-26T13:16:01;30.60;92.70
9383;DHT22;4731;49.708;10.816;2022-07-26T13:18:29;30.50;92.90
9383;DHT22;4731;49.708;10.816;2022-07-26T13:20:56;30.50;92.80
9383;DHT22;4731;49.708;10.816;2022-07-26T13:30:45;29.70;92.00
9383;DHT22;4731;49.708;10.816;2022-07-26T13:35:43;29.80;92.60
9383;DHT22;4731;49.708;10.816;2022-07-26T13:40:37;29.10;92.50
9383;DHT22;4731;49.708;10.816;2022-07-26T13:47:58;29.60;92.70
9383;DHT22;4731;49.708;10.816;2022-07-26T14:00:16;29.60;90.30
9383;DHT22;4731;49.708;10.816;2022-07-26T14:07:39;29.20;91.60
9383;DHT22;4731;49.708;10.816;2022-07-26T14:12:35;29.00;91.10
9383;DHT22;4731;49.708;10.816;2022-07-26T14:19:57;28.70;91.20
9383;DHT22;4731;49.708;10.816;2022-07-26T14:22:24;28.50;91.40
9383;DHT22;4731;49.708;10.816;2022-07-26T14:29:48;29.10;91.30
9383;DHT22;4731;49.708;10.816;2022-07-26T14:39:37;28.80;91.30
9383;DHT22;4731;49.708;10.816;2022-07-26T14:42:04;28.70;91.40
9383;DHT22;4731;49.708;10.816;2022-07-26T14:44:34;28.60;91.40
9383;DHT22;4731;49.708;10.816;2022-07-26T14:47:01;28.60;91.10
9383;DHT22;4731;49.708;10.816;2022-07-26T14:49:27;28.70;91.60
9383;DHT22;4731;49.708;10.816;2022-07-26T14:51:54;29.20;91.00
9383;DHT22;4731;49.708;10.816;2022-07-26T14:59:15;29.10;91.40
9383;DHT22;4731;49.708;10.816;2022-07-26T15:06:38;28.00;93.40
9383;DHT22;4731;49.708;10.816;2022-07-26T15:09:05;27.90;94.90
9383;DHT22;4731;49.708;10.816;2022-07-26T15:11:32;27.30;95.10
9383;DHT22;4731;49.708;10.816;2022-07-26T15:16:26;27.20;96.30
9383;DHT22;4731;49.708;10.816;2022-07-26T15:23:49;27.60;96.80
9383;DHT22;4731;49.708;10.816;2022-07-26T15:26:16;27.70;97.10
9383;DHT22;4731;49.708;10.816;2022-07-26T15:28:42;28.00;96.90
9383;DHT22;4731;49.708;10.816;2022-07-26T15:31:09;28.10;95.60
9383;DHT22;4731;49.708;10.816;2022-07-26T15:33:36;27.90;95.50
9383;DHT22;4731;49.708;10.816;2022-07-26T15:36:05;28.10;95.50
9383;DHT22;4731;49.708;10.816;2022-07-26T15:38:31;28.00;95.90
9383;DHT22;4731;49.708;10.816;2022-07-26T15:45:53;27.70;96.70
9383;DHT22;4731;49.708;10.816;2022-07-26T15:48:22;27.50;96.40
9383;DHT22;4731;49.708;10.816;2022-07-26T15:53:17;27.00;96.60
9383;DHT22;4731;49.708;10.816;2022-07-26T16:00:39;27.00;98.30
9383;DHT22;4731;49.708;10.816;2022-07-26T16:05:33;26.60;98.60
9383;DHT22;4731;49.708;10.816;2022-07-26T16:10:29;26.60;98.70
9383;DHT22;4731;49.708;10.816;2022-07-26T16:12:56;26.50;99.30
9383;DHT22;4731;49.708;10.816;2022-07-26T16:15:23;29.30;99.90
9383;DHT22;4731;49.708;10.816;2022-07-26T16:17:51;26.50;99.60
9383;DHT22;4731;49.708;10.816;2022-07-26T16:20:18;26.40;99.90
9383;DHT22;4731;49.708;10.816;2022-07-26T16:22:45;26.30;99.60
9383;DHT22;4731;49.708;10.816;2022-07-26T16:25:13;26.30;99.90
9383;DHT22;4731;49.708;10.816;2022-07-26T16:27:42;26.30;99.90
9383;DHT22;4731;49.708;10.816;2022-07-26T16:30:10;26.40;99.90
9383;DHT22;4731;49.708;10.816;2022-07-26T16:32:37;26.60;99.90
9383;DHT22;4731;49.708;10.816;2022-07-26T16:35:05;26.70;99.90
9383;DHT22;4731;49.708;10.816;2022-07-26T16:37:32;26.90;99.90
9383;DHT22;4731;49.708;10.816;2022-07-26T16:39:58;26.90;99.90
9383;DHT22;4731;49.708;10.816;2022-07-26T16:42:27;26.80;99.20
9383;DHT22;4731;49.708;10.816;2022-07-26T16:44:56;26.60;99.60
9383;DHT22;4731;49.708;10.816;2022-07-26T16:47:22;26.30;99.70
9383;DHT22;4731;49.708;10.816;2022-07-26T16:49:49;26.10;99.90
9383;DHT22;4731;49.708;10.816;2022-07-26T16:57:12;25.90;99.90
9383;DHT22;4731;49.708;10.816;2022-07-26T16:59:39;25.80;99.90
9383;DHT22;4731;49.708;10.816;2022-07-26T17:04:34;25.40;99.90
9383;DHT22;4731;49.708;10.816;2022-07-26T17:07:01;25.40;99.90
9383;DHT22;4731;49.708;10.816;2022-07-26T17:09:28;25.30;99.90
9383;DHT22;4731;49.708;10.816;2022-07-26T17:11:55;25.20;99.90
9383;DHT22;4731;49.708;10.816;2022-07-26T17:14:22;25.20;99.90
9383;DHT22;4731;49.708;10.816;2022-07-26T17:19:18;25.10;99.90
9383;DHT22;4731;49.708;10.816;2022-07-26T17:21:45;25.00;99.90
9383;DHT22;4731;49.708;10.816;2022-07-26T17:26:40;25.00;99.90
9383;DHT22;4731;49.708;10.816;2022-07-26T17:29:06;25.00;99.90
9383;DHT22;4731;49.708;10.816;2022-07-26T17:38:57;25.00;99.90
9383;DHT22;4731;49.708;10.816;2022-07-26T17:41:25;24.90;99.90
9383;DHT22;4731;49.708;10.816;2022-07-26T17:43:52;27.70;99.90
9383;DHT22;4731;49.708;10.816;2022-07-26T17:46:18;24.90;99.90
9383;DHT22;4731;49.708;10.816;2022-07-26T17:48:45;24.80;99.90
9383;DHT22;4731;49.708;10.816;2022-07-26T17:51:13;24.80;99.90
9383;DHT22;4731;49.708;10.816;2022-07-26T17:53:41;24.70;99.90
9383;DHT22;4731;49.708;10.816;2022-07-26T17:56:09;24.60;99.90
9383;DHT22;4731;49.708;10.816;2022-07-26T17:58:40;24.50;99.90
9383;DHT22;4731;49.708;10.816;2022-07-26T18:01:07;24.50;99.90
9383;DHT22;4731;49.708;10.816;2022-07-26T18:03:33;24.40;99.90
9383;DHT22;4731;49.708;10.816;2022-07-26T18:06:00;23.70;99.90
9383;DHT22;4731;49.708;10.816;2022-07-26T18:08:27;24.20;99.90
9383;DHT22;4731;49.708;10.816;2022-07-26T18:10:56;24.10;99.90
9383;DHT22;4731;49.708;10.816;2022-07-26T18:13:24;23.90;99.90
9383;DHT22;4731;49.708;10.816;2022-07-26T18:15:51;23.90;99.90
9383;DHT22;4731;49.708;10.816;2022-07-26T18:18:18;23.80;99.90
9383;DHT22;4731;49.708;10.816;2022-07-26T18:20:45;23.80;99.90
9383;DHT22;4731;49.708;10.816;2022-07-26T18:23:12;25.60;99.90
9383;DHT22;4731;49.708;10.816;2022-07-26T18:25:39;23.80;99.90
9383;DHT22;4731;49.708;10.816;2022-07-26T18:30:35;23.30;99.90
9383;DHT22;4731;49.708;10.816;2022-07-26T18:33:03;23.30;99.90
9383;DHT22;4731;49.708;10.816;2022-07-26T18:35:30;23.70;99.90
9383;DHT22;4731;49.708;10.816;2022-07-26T18:40:25;23.60;99.90
9383;DHT22;4731;49.708;10.816;2022-07-26T18:42:51;23.40;99.90
9383;DHT22;4731;49.708;10.816;2022-07-26T18:45:26;23.40;99.90
9383;DHT22;4731;49.708;10.816;2022-07-26T18:47:53;23.30;99.90
9383;DHT22;4731;49.708;10.816;2022-07-26T18:50:20;26.00;99.90
9383;DHT22;4731;49.708;10.816;2022-07-26T18:52:47;23.10;99.90
9383;DHT22;4731;49.708;10.816;2022-07-26T18:55:13;23.00;99.90
9383;DHT22;4731;49.708;10.816;2022-07-26T18:57:42;23.10;99.90
9383;DHT22;4731;49.708;10.816;2022-07-26T19:00:11;22.80;99.90
9383;DHT22;4731;49.708;10.816;2022-07-26T19:02:40;22.70;99.90
9383;DHT22;4731;49.708;10.816;2022-07-26T19:05:08;22.60;99.90
9383;DHT22;4731;49.708;10.816;2022-07-26T19:07:36;22.40;99.90
9383;DHT22;4731;49.708;10.816;2022-07-26T19:10:03;22.30;99.90
9383;DHT22;4731;49.708;10.816;2022-07-26T19:12:30;22.30;99.90
9383;DHT22;4731;49.708;10.816;2022-07-26T19:14:57;22.10;99.90
9383;DHT22;4731;49.708;10.816;2022-07-26T19:17:25;22.10;99.90
9383;DHT22;4731;49.708;10.816;2022-07-26T19:19:54;22.00;99.90
9383;DHT22;4731;49.708;10.816;2022-07-26T19:22:21;23.70;99.90
9383;DHT22;4731;49.708;10.816;2022-07-26T19:24:49;21.90;99.90
9383;DHT22;4731;49.708;10.816;2022-07-26T19:27:17;21.90;99.90
9383;DHT22;4731;49.708;10.816;2022-07-26T19:29:44;21.80;99.90
9383;DHT22;4731;49.708;10.816;2022-07-26T19:32:12;21.80;99.90
9383;DHT22;4731;49.708;10.816;2022-07-26T19:34:38;21.70;99.90
9383;DHT22;4731;49.708;10.816;2022-07-26T19:37:07;21.70;99.90
9383;DHT22;4731;49.708;10.816;2022-07-26T19:39:33;23.70;99.90
9383;DHT22;4731;49.708;10.816;2022-07-26T19:42:00;21.70;99.90
9383;DHT22;4731;49.708;10.816;2022-07-26T19:44:28;21.70;99.90
9383;DHT22;4731;49.708;10.816;2022-07-26T19:49:22;21.70;99.90